sensor_id;sensor_type;location;lat;lon;timestamp;P1;durP1;ratioP1;P2;durP2;ratioP2
19193;SDS011;9729;52.296;13.260;2024-02-26T00:00:57;30.70;;;18.70;;
19193;SDS011;9729;52.296;13.260;2024-02-26T00:03:23;51.03;;;22.50;;
19193;SDS011;9729;52.296;13.260;2024-02-26T00:05:49;45.67;;;21.37;;
19193;SDS011;9729;52.296;13.260;2024-02-26T00:08:16;48.60;;;20.27;;
19193;SDS011;9729;52.296;13.260;2024-02-26T00:10:42;30.03;;;18.27;;
19193;SDS011;9729;52.296;13.260;2024-02-26T00:13:08;22.13;;;14.17;;
19193;SDS011;9729;52.296;13.260;2024-02-26T00:15:36;23.10;;;13.30;;
19193;SDS011;9729;52.296;13.260;2024-02-26T00:18:02;22.50;;;13.13;;
19193;SDS011;9729;52.296;13.260;2024-02-26T00:20:29;20.40;;;13.40;;
19193;SDS011;9729;52.296;13.260;2024-02-26T00:22:55;20.03;;;12.60;;
19193;SDS011;9729;52.296;13.260;2024-02-26T00:25:21;20.80;;;13.00;;
19193;SDS011;9729;52.296;13.260;2024-02-26T00:27:48;20.30;;;11.10;;
19193;SDS011;9729;52.296;13.260;2024-02-26T00:30:14;20.67;;;11.17;;
19193;SDS011;9729;52.296;13.260;2024-02-26T00:32:42;19.23;;;12.03;;
19193;SDS011;9729;52.296;13.260;2024-02-26T00:35:08;28.37;;;12.87;;
19193;SDS011;9729;52.296;13.260;2024-02-26T00:37:35;32.50;;;14.77;;
19193;SDS011;9729;52.296;13.260;2024-02-26T00:40:02;29.03;;;13.30;;
19193;SDS011;9729;52.296;13.260;2024-02-26T00:42:28;29.10;;;14.80;;
19193;SDS011;9729;52.296;13.260;2024-02-26T00:44:55;23.03;;;13.47;;
19193;SDS011;9729;52.296;13.260;2024-02-26T00:47:21;29.13;;;15.83;;
19193;SDS011;9729;52.296;13.260;2024-02-26T00:49:49;33.77;;;16.60;;
19193;SDS011;9729;52.296;13.260;2024-02-26T00:52:15;30.20;;;16.40;;
19193;SDS011;9729;52.296;13.260;2024-02-26T00:54:41;23.10;;;12.90;;
19193;SDS011;9729;52.296;13.260;2024-02-26T00:57:08;20.07;;;12.33;;
19193;SDS011;9729;52.296;13.260;2024-02-26T00:59:35;21.47;;;11.10;;
19193;SDS011;9729;52.296;13.260;2024-02-26T01:02:01;16.97;;;11.17;;
19193;SDS011;9729;52.296;13.260;2024-02-26T01:04:29;16.53;;;11.57;;
19193;SDS011;9729;52.296;13.260;2024-02-26T01:06:56;20.07;;;11.57;;
19193;SDS011;9729;52.296;13.260;2024-02-26T01:09:23;20.13;;;12.07;;
19193;SDS011;9729;52.296;13.260;2024-02-26T01:11:49;22.57;;;13.50;;
19193;SDS011;9729;52.296;13.260;2024-02-26T01:14:15;40.80;;;19.97;;
19193;SDS011;9729;52.296;13.260;2024-02-26T01:16:42;35.00;;;16.57;;
19193;SDS011;9729;52.296;13.260;2024-02-26T01:19:08;38.93;;;19.30;;
19193;SDS011;9729;52.296;13.260;2024-02-26T01:21:34;43.70;;;20.70;;
19193;SDS011;9729;52.296;13.260;2024-02-26T01:24:02;33.40;;;16.17;;
19193;SDS011;9729;52.296;13.260;2024-02-26T01:26:28;23.87;;;13.43;;
19193;SDS011;9729;52.296;13.260;2024-02-26T01:28:56;24.27;;;13.50;;
19193;SDS011;9729;52.296;13.260;2024-02-26T01:31:22;17.63;;;11.03;;
19193;SDS011;9729;52.296;13.260;2024-02-26T01:33:48;24.23;;;11.70;;
19193;SDS011;9729;52.296;13.260;2024-02-26T01:36:15;17.83;;;11.07;;
19193;SDS011;9729;52.296;13.260;2024-02-26T01:38:41;17.50;;;10.80;;
19193;SDS011;9729;52.296;13.260;2024-02-26T01:41:08;21.23;;;11.63;;
19193;SDS011;9729;52.296;13.260;2024-02-26T01:43:35;22.93;;;14.53;;
19193;SDS011;9729;52.296;13.260;2024-02-26T01:46:01;94.30;;;39.50;;
19193;SDS011;9729;52.296;13.260;2024-02-26T01:48:28;50.47;;;23.87;;
19193;SDS011;9729;52.296;13.260;2024-02-26T01:50:55;26.67;;;15.43;;
19193;SDS011;9729;52.296;13.260;2024-02-26T01:53:21;25.80;;;14.03;;
19193;SDS011;9729;52.296;13.260;2024-02-26T01:55:48;33.60;;;16.70;;
19193;SDS011;9729;52.296;13.260;2024-02-26T01:58:16;24.50;;;13.73;;
19193;SDS011;9729;52.296;13.260;2024-02-26T02:00:42;26.27;;;14.43;;
19193;SDS011;9729;52.296;13.260;2024-02-26T02:03:09;46.50;;;20.80;;
19193;SDS011;9729;52.296;13.260;2024-02-26T02:05:35;129.47;;;54.03;;
19193;SDS011;9729;52.296;13.260;2024-02-26T02:08:06;57.83;;;26.40;;
19193;SDS011;9729;52.296;13.260;2024-02-26T02:10:33;17.43;;;9.87;;
19193;SDS011;9729;52.296;13.260;2024-02-26T02:13:00;18.57;;;9.97;;
19193;SDS011;9729;52.296;13.260;2024-02-26T02:15:27;15.63;;;11.33;;
19193;SDS011;9729;52.296;13.260;2024-02-26T02:17:54;32.40;;;14.53;;
19193;SDS011;9729;52.296;13.260;2024-02-26T02:20:24;22.77;;;11.73;;
19193;SDS011;9729;52.296;13.260;2024-02-26T02:22:52;18.20;;;10.93;;
19193;SDS011;9729;52.296;13.260;2024-02-26T02:25:18;20.33;;;12.30;;
19193;SDS011;9729;52.296;13.260;2024-02-26T02:27:45;18.93;;;10.93;;
19193;SDS011;9729;52.296;13.260;2024-02-26T02:30:11;18.23;;;10.80;;
19193;SDS011;9729;52.296;13.260;2024-02-26T02:32:39;21.90;;;12.17;;
19193;SDS011;9729;52.296;13.260;2024-02-26T02:35:06;16.20;;;10.00;;
19193;SDS011;9729;52.296;13.260;2024-02-26T02:37:34;12.33;;;9.53;;
19193;SDS011;9729;52.296;13.260;2024-02-26T02:40:00;16.87;;;9.47;;
19193;SDS011;9729;52.296;13.260;2024-02-26T02:42:27;14.63;;;9.70;;
19193;SDS011;9729;52.296;13.260;2024-02-26T02:44:53;12.53;;;8.00;;
19193;SDS011;9729;52.296;13.260;2024-02-26T02:47:19;10.20;;;7.60;;
19193;SDS011;9729;52.296;13.260;2024-02-26T02:49:46;11.30;;;8.43;;
19193;SDS011;9729;52.296;13.260;2024-02-26T02:52:12;11.63;;;8.50;;
19193;SDS011;9729;52.296;13.260;2024-02-26T02:54:40;17.30;;;9.70;;
19193;SDS011;9729;52.296;13.260;2024-02-26T02:57:07;11.33;;;9.27;;
19193;SDS011;9729;52.296;13.260;2024-02-26T02:59:33;11.57;;;9.40;;
19193;SDS011;9729;52.296;13.260;2024-02-26T03:01:59;10.60;;;9.43;;
19193;SDS011;9729;52.296;13.260;2024-02-26T03:04:26;17.53;;;10.37;;
19193;SDS011;9729;52.296;13.260;2024-02-26T03:06:52;19.07;;;10.43;;
19193;SDS011;9729;52.296;13.260;2024-02-26T03:09:19;15.07;;;9.63;;
19193;SDS011;9729;52.296;13.260;2024-02-26T03:11:46;10.90;;;9.33;;
19193;SDS011;9729;52.296;13.260;2024-02-26T03:14:12;15.33;;;10.03;;
19193;SDS011;9729;52.296;13.260;2024-02-26T03:16:39;11.17;;;8.97;;
19193;SDS011;9729;52.296;13.260;2024-02-26T03:19:05;12.93;;;9.00;;
19193;SDS011;9729;52.296;13.260;2024-02-26T03:21:31;12.77;;;9.73;;
19193;SDS011;9729;52.296;13.260;2024-02-26T03:23:58;16.03;;;9.47;;
19193;SDS011;9729;52.296;13.260;2024-02-26T03:26:24;11.10;;;8.63;;
19193;SDS011;9729;52.296;13.260;2024-02-26T03:28:52;13.37;;;9.40;;
19193;SDS011;9729;52.296;13.260;2024-02-26T03:31:18;17.73;;;10.27;;
19193;SDS011;9729;52.296;13.260;2024-02-26T03:33:46;12.10;;;9.50;;
19193;SDS011;9729;52.296;13.260;2024-02-26T03:36:12;15.00;;;9.40;;
19193;SDS011;9729;52.296;13.260;2024-02-26T03:38:39;14.23;;;9.40;;
19193;SDS011;9729;52.296;13.260;2024-02-26T03:41:06;13.07;;;10.03;;
19193;SDS011;9729;52.296;13.260;2024-02-26T03:43:33;11.77;;;8.53;;
19193;SDS011;9729;52.296;13.260;2024-02-26T03:46:01;13.03;;;9.13;;
19193;SDS011;9729;52.296;13.260;2024-02-26T03:48:27;15.10;;;10.07;;
19193;SDS011;9729;52.296;13.260;2024-02-26T03:50:53;16.13;;;9.17;;
19193;SDS011;9729;52.296;13.260;2024-02-26T03:53:20;13.83;;;9.23;;
19193;SDS011;9729;52.296;13.260;2024-02-26T03:55:46;19.07;;;9.33;;
19193;SDS011;9729;52.296;13.260;2024-02-26T03:58:12;13.47;;;9.33;;
19193;SDS011;9729;52.296;13.260;2024-02-26T04:00:39;12.40;;;9.80;;
19193;SDS011;9729;52.296;13.260;2024-02-26T04:03:06;14.57;;;9.73;;
19193;SDS011;9729;52.296;13.260;2024-02-26T04:05:33;15.03;;;9.70;;
19193;SDS011;9729;52.296;13.260;2024-02-26T04:07:59;13.77;;;9.63;;
19193;SDS011;9729;52.296;13.260;2024-02-26T04:10:25;12.90;;;10.63;;
19193;SDS011;9729;52.296;13.260;2024-02-26T04:12:52;15.63;;;10.13;;
19193;SDS011;9729;52.296;13.260;2024-02-26T04:15:18;14.63;;;9.30;;
19193;SDS011;9729;52.296;13.260;2024-02-26T04:17:44;15.37;;;9.57;;
19193;SDS011;9729;52.296;13.260;2024-02-26T04:20:14;13.33;;;9.97;;
19193;SDS011;9729;52.296;13.260;2024-02-26T04:22:41;14.23;;;9.90;;
19193;SDS011;9729;52.296;13.260;2024-02-26T04:25:08;14.30;;;9.67;;
19193;SDS011;9729;52.296;13.260;2024-02-26T04:27:34;15.33;;;9.27;;
19193;SDS011;9729;52.296;13.260;2024-02-26T04:30:00;13.03;;;10.20;;
19193;SDS011;9729;52.296;13.260;2024-02-26T04:32:26;12.67;;;9.70;;
19193;SDS011;9729;52.296;13.260;2024-02-26T04:34:52;13.83;;;9.40;;
19193;SDS011;9729;52.296;13.260;2024-02-26T04:37:20;18.10;;;10.97;;
19193;SDS011;9729;52.296;13.260;2024-02-26T04:39:46;14.97;;;10.57;;
19193;SDS011;9729;52.296;13.260;2024-02-26T04:42:13;12.77;;;9.90;;
19193;SDS011;9729;52.296;13.260;2024-02-26T04:44:39;16.90;;;9.90;;
19193;SDS011;9729;52.296;13.260;2024-02-26T04:47:05;16.57;;;10.60;;
19193;SDS011;9729;52.296;13.260;2024-02-26T04:49:32;14.60;;;10.70;;
19193;SDS011;9729;52.296;13.260;2024-02-26T04:51:59;12.30;;;10.40;;
19193;SDS011;9729;52.296;13.260;2024-02-26T04:54:26;13.30;;;11.10;;
19193;SDS011;9729;52.296;13.260;2024-02-26T04:56:53;15.03;;;10.13;;
19193;SDS011;9729;52.296;13.260;2024-02-26T04:59:19;13.90;;;9.77;;
19193;SDS011;9729;52.296;13.260;2024-02-26T05:01:45;13.77;;;10.40;;
19193;SDS011;9729;52.296;13.260;2024-02-26T05:04:11;15.17;;;9.80;;
19193;SDS011;9729;52.296;13.260;2024-02-26T05:06:38;15.50;;;10.20;;
19193;SDS011;9729;52.296;13.260;2024-02-26T05:09:04;14.23;;;10.57;;
19193;SDS011;9729;52.296;13.260;2024-02-26T05:11:32;14.83;;;10.97;;
19193;SDS011;9729;52.296;13.260;2024-02-26T05:13:58;18.57;;;11.40;;
19193;SDS011;9729;52.296;13.260;2024-02-26T05:16:25;17.00;;;10.83;;
19193;SDS011;9729;52.296;13.260;2024-02-26T05:18:52;17.97;;;11.40;;
19193;SDS011;9729;52.296;13.260;2024-02-26T05:21:18;13.70;;;10.63;;
19193;SDS011;9729;52.296;13.260;2024-02-26T05:23:44;14.10;;;10.83;;
19193;SDS011;9729;52.296;13.260;2024-02-26T05:26:11;19.90;;;11.67;;
19193;SDS011;9729;52.296;13.260;2024-02-26T05:28:38;14.63;;;11.93;;
19193;SDS011;9729;52.296;13.260;2024-02-26T05:31:05;20.10;;;11.00;;
19193;SDS011;9729;52.296;13.260;2024-02-26T05:33:31;13.53;;;10.07;;
19193;SDS011;9729;52.296;13.260;2024-02-26T05:35:57;13.03;;;10.20;;
19193;SDS011;9729;52.296;13.260;2024-02-26T05:38:28;16.53;;;11.10;;
19193;SDS011;9729;52.296;13.260;2024-02-26T05:40:56;17.43;;;11.90;;
19193;SDS011;9729;52.296;13.260;2024-02-26T05:43:23;17.40;;;11.30;;
19193;SDS011;9729;52.296;13.260;2024-02-26T05:45:51;17.20;;;10.43;;
19193;SDS011;9729;52.296;13.260;2024-02-26T05:48:17;17.13;;;10.90;;
19193;SDS011;9729;52.296;13.260;2024-02-26T05:50:44;16.33;;;10.83;;
19193;SDS011;9729;52.296;13.260;2024-02-26T05:53:10;19.33;;;12.53;;
19193;SDS011;9729;52.296;13.260;2024-02-26T05:55:37;19.47;;;11.57;;
19193;SDS011;9729;52.296;13.260;2024-02-26T05:58:03;15.13;;;11.03;;
19193;SDS011;9729;52.296;13.260;2024-02-26T06:00:30;13.90;;;11.53;;
19193;SDS011;9729;52.296;13.260;2024-02-26T06:02:58;14.27;;;11.00;;
19193;SDS011;9729;52.296;13.260;2024-02-26T06:05:24;16.07;;;11.10;;
19193;SDS011;9729;52.296;13.260;2024-02-26T06:07:51;14.70;;;11.33;;
19193;SDS011;9729;52.296;13.260;2024-02-26T06:10:17;20.30;;;11.67;;
19193;SDS011;9729;52.296;13.260;2024-02-26T06:12:46;17.03;;;12.97;;
19193;SDS011;9729;52.296;13.260;2024-02-26T06:15:12;14.30;;;11.83;;
19193;SDS011;9729;52.296;13.260;2024-02-26T06:17:39;22.10;;;13.10;;
19193;SDS011;9729;52.296;13.260;2024-02-26T06:20:07;18.93;;;12.97;;
19193;SDS011;9729;52.296;13.260;2024-02-26T06:22:37;20.43;;;13.37;;
19193;SDS011;9729;52.296;13.260;2024-02-26T06:25:04;29.10;;;14.30;;
19193;SDS011;9729;52.296;13.260;2024-02-26T06:27:31;21.00;;;13.47;;
19193;SDS011;9729;52.296;13.260;2024-02-26T06:29:57;24.23;;;13.47;;
19193;SDS011;9729;52.296;13.260;2024-02-26T06:32:24;34.00;;;13.70;;
19193;SDS011;9729;52.296;13.260;2024-02-26T06:34:52;16.33;;;12.97;;
19193;SDS011;9729;52.296;13.260;2024-02-26T06:37:20;25.40;;;13.97;;
19193;SDS011;9729;52.296;13.260;2024-02-26T06:39:46;25.60;;;14.87;;
19193;SDS011;9729;52.296;13.260;2024-02-26T06:42:13;20.47;;;14.27;;
19193;SDS011;9729;52.296;13.260;2024-02-26T06:44:39;19.97;;;14.40;;
19193;SDS011;9729;52.296;13.260;2024-02-26T06:47:05;19.10;;;13.53;;
19193;SDS011;9729;52.296;13.260;2024-02-26T06:49:32;18.87;;;14.33;;
19193;SDS011;9729;52.296;13.260;2024-02-26T06:51:58;25.97;;;15.20;;
19193;SDS011;9729;52.296;13.260;2024-02-26T06:54:26;17.43;;;13.07;;
19193;SDS011;9729;52.296;13.260;2024-02-26T06:56:52;23.00;;;14.37;;
19193;SDS011;9729;52.296;13.260;2024-02-26T06:59:18;21.47;;;14.90;;
19193;SDS011;9729;52.296;13.260;2024-02-26T07:01:45;23.97;;;15.07;;
19193;SDS011;9729;52.296;13.260;2024-02-26T07:04:11;21.97;;;14.50;;
19193;SDS011;9729;52.296;13.260;2024-02-26T07:06:37;25.77;;;16.00;;
19193;SDS011;9729;52.296;13.260;2024-02-26T07:09:04;25.67;;;16.53;;
19193;SDS011;9729;52.296;13.260;2024-02-26T07:11:31;23.13;;;16.10;;
19193;SDS011;9729;52.296;13.260;2024-02-26T07:13:58;26.33;;;16.63;;
19193;SDS011;9729;52.296;13.260;2024-02-26T07:16:25;23.07;;;15.97;;
19193;SDS011;9729;52.296;13.260;2024-02-26T07:18:52;26.10;;;17.90;;
19193;SDS011;9729;52.296;13.260;2024-02-26T07:21:18;24.00;;;16.27;;
19193;SDS011;9729;52.296;13.260;2024-02-26T07:23:45;31.80;;;19.03;;
19193;SDS011;9729;52.296;13.260;2024-02-26T07:26:10;29.87;;;20.03;;
19193;SDS011;9729;52.296;13.260;2024-02-26T07:28:38;27.73;;;18.37;;
19193;SDS011;9729;52.296;13.260;2024-02-26T07:31:04;30.33;;;17.80;;
19193;SDS011;9729;52.296;13.260;2024-02-26T07:33:31;30.80;;;19.13;;
19193;SDS011;9729;52.296;13.260;2024-02-26T07:35:57;29.93;;;19.70;;
19193;SDS011;9729;52.296;13.260;2024-02-26T07:38:23;27.63;;;17.87;;
19193;SDS011;9729;52.296;13.260;2024-02-26T07:40:49;29.90;;;19.83;;
19193;SDS011;9729;52.296;13.260;2024-02-26T07:43:16;29.63;;;19.07;;
19193;SDS011;9729;52.296;13.260;2024-02-26T07:45:43;33.07;;;19.63;;
19193;SDS011;9729;52.296;13.260;2024-02-26T07:48:10;44.30;;;20.60;;
19193;SDS011;9729;52.296;13.260;2024-02-26T07:50:37;35.17;;;21.63;;
19193;SDS011;9729;52.296;13.260;2024-02-26T07:53:03;36.20;;;21.60;;
19193;SDS011;9729;52.296;13.260;2024-02-26T07:55:30;32.37;;;19.53;;
19193;SDS011;9729;52.296;13.260;2024-02-26T07:57:56;33.73;;;22.17;;
19193;SDS011;9729;52.296;13.260;2024-02-26T08:00:22;34.93;;;20.80;;
19193;SDS011;9729;52.296;13.260;2024-02-26T08:02:50;40.80;;;21.27;;
19193;SDS011;9729;52.296;13.260;2024-02-26T08:05:17;35.37;;;22.57;;
19193;SDS011;9729;52.296;13.260;2024-02-26T08:07:43;34.20;;;21.30;;
19193;SDS011;9729;52.296;13.260;2024-02-26T08:10:10;42.50;;;23.77;;
19193;SDS011;9729;52.296;13.260;2024-02-26T08:12:36;31.47;;;19.33;;
19193;SDS011;9729;52.296;13.260;2024-02-26T08:15:03;38.03;;;23.17;;
19193;SDS011;9729;52.296;13.260;2024-02-26T08:17:30;36.23;;;22.00;;
19193;SDS011;9729;52.296;13.260;2024-02-26T08:19:59;37.60;;;22.50;;
19193;SDS011;9729;52.296;13.260;2024-02-26T08:22:25;33.57;;;21.50;;
19193;SDS011;9729;52.296;13.260;2024-02-26T08:24:51;28.50;;;19.77;;
19193;SDS011;9729;52.296;13.260;2024-02-26T08:27:18;36.87;;;21.93;;
19193;SDS011;9729;52.296;13.260;2024-02-26T08:29:44;38.60;;;20.80;;
19193;SDS011;9729;52.296;13.260;2024-02-26T08:32:11;33.20;;;21.30;;
19193;SDS011;9729;52.296;13.260;2024-02-26T08:34:37;41.17;;;24.67;;
19193;SDS011;9729;52.296;13.260;2024-02-26T08:37:05;38.33;;;22.70;;
19193;SDS011;9729;52.296;13.260;2024-02-26T08:39:31;36.50;;;22.57;;
19193;SDS011;9729;52.296;13.260;2024-02-26T08:41:58;32.10;;;21.23;;
19193;SDS011;9729;52.296;13.260;2024-02-26T08:44:24;40.07;;;22.47;;
19193;SDS011;9729;52.296;13.260;2024-02-26T08:46:51;33.47;;;21.73;;
19193;SDS011;9729;52.296;13.260;2024-02-26T08:49:17;34.70;;;22.40;;
19193;SDS011;9729;52.296;13.260;2024-02-26T08:51:44;28.93;;;20.77;;
19193;SDS011;9729;52.296;13.260;2024-02-26T08:54:11;38.43;;;21.63;;
19193;SDS011;9729;52.296;13.260;2024-02-26T08:56:38;35.00;;;22.03;;
19193;SDS011;9729;52.296;13.260;2024-02-26T08:59:04;31.17;;;21.53;;
19193;SDS011;9729;52.296;13.260;2024-02-26T09:01:30;34.70;;;21.20;;
19193;SDS011;9729;52.296;13.260;2024-02-26T09:03:57;31.93;;;20.37;;
19193;SDS011;9729;52.296;13.260;2024-02-26T09:06:23;33.87;;;21.10;;
19193;SDS011;9729;52.296;13.260;2024-02-26T09:08:49;35.20;;;21.53;;
19193;SDS011;9729;52.296;13.260;2024-02-26T09:11:17;36.10;;;22.07;;
19193;SDS011;9729;52.296;13.260;2024-02-26T09:13:43;32.17;;;20.53;;
19193;SDS011;9729;52.296;13.260;2024-02-26T09:16:11;36.40;;;22.67;;
19193;SDS011;9729;52.296;13.260;2024-02-26T09:18:37;41.20;;;21.67;;
19193;SDS011;9729;52.296;13.260;2024-02-26T09:21:04;34.73;;;22.27;;
19193;SDS011;9729;52.296;13.260;2024-02-26T09:23:31;47.07;;;22.80;;
19193;SDS011;9729;52.296;13.260;2024-02-26T09:25:57;33.93;;;22.27;;
19193;SDS011;9729;52.296;13.260;2024-02-26T09:28:25;34.03;;;21.23;;
19193;SDS011;9729;52.296;13.260;2024-02-26T09:30:51;33.87;;;21.07;;
19193;SDS011;9729;52.296;13.260;2024-02-26T09:33:18;33.30;;;20.13;;
19193;SDS011;9729;52.296;13.260;2024-02-26T09:35:44;34.97;;;21.47;;
19193;SDS011;9729;52.296;13.260;2024-02-26T09:38:11;31.30;;;20.50;;
19193;SDS011;9729;52.296;13.260;2024-02-26T09:40:38;31.80;;;18.80;;
19193;SDS011;9729;52.296;13.260;2024-02-26T09:43:05;34.10;;;20.13;;
19193;SDS011;9729;52.296;13.260;2024-02-26T09:45:37;29.57;;;18.60;;
19193;SDS011;9729;52.296;13.260;2024-02-26T09:48:04;32.53;;;19.57;;
19193;SDS011;9729;52.296;13.260;2024-02-26T09:50:31;29.67;;;19.07;;
19193;SDS011;9729;52.296;13.260;2024-02-26T09:52:57;34.03;;;19.33;;
19193;SDS011;9729;52.296;13.260;2024-02-26T09:55:24;24.60;;;17.13;;
19193;SDS011;9729;52.296;13.260;2024-02-26T09:57:51;31.33;;;19.83;;
19193;SDS011;9729;52.296;13.260;2024-02-26T10:00:18;32.50;;;20.03;;
19193;SDS011;9729;52.296;13.260;2024-02-26T10:02:46;24.70;;;16.17;;
19193;SDS011;9729;52.296;13.260;2024-02-26T10:05:14;26.93;;;17.17;;
19193;SDS011;9729;52.296;13.260;2024-02-26T10:07:43;26.23;;;16.83;;
19193;SDS011;9729;52.296;13.260;2024-02-26T10:10:10;28.27;;;16.93;;
19193;SDS011;9729;52.296;13.260;2024-02-26T10:12:36;26.90;;;16.43;;
19193;SDS011;9729;52.296;13.260;2024-02-26T10:15:03;26.93;;;17.77;;
19193;SDS011;9729;52.296;13.260;2024-02-26T10:17:29;24.80;;;15.63;;
19193;SDS011;9729;52.296;13.260;2024-02-26T10:20:00;25.83;;;16.47;;
19193;SDS011;9729;52.296;13.260;2024-02-26T10:22:37;27.80;;;16.43;;
19193;SDS011;9729;52.296;13.260;2024-02-26T10:25:03;29.20;;;17.87;;
19193;SDS011;9729;52.296;13.260;2024-02-26T10:27:30;25.37;;;14.63;;
19193;SDS011;9729;52.296;13.260;2024-02-26T10:29:57;24.87;;;15.80;;
19193;SDS011;9729;52.296;13.260;2024-02-26T10:32:24;26.70;;;17.30;;
19193;SDS011;9729;52.296;13.260;2024-02-26T10:34:50;24.53;;;16.33;;
19193;SDS011;9729;52.296;13.260;2024-02-26T10:37:23;26.17;;;17.43;;
19193;SDS011;9729;52.296;13.260;2024-02-26T10:39:50;25.80;;;16.93;;
19193;SDS011;9729;52.296;13.260;2024-02-26T10:42:16;28.27;;;15.27;;
19193;SDS011;9729;52.296;13.260;2024-02-26T10:44:44;23.83;;;15.37;;
19193;SDS011;9729;52.296;13.260;2024-02-26T10:47:13;23.00;;;14.20;;
19193;SDS011;9729;52.296;13.260;2024-02-26T10:49:44;17.40;;;13.63;;
19193;SDS011;9729;52.296;13.260;2024-02-26T10:52:11;19.70;;;13.37;;
19193;SDS011;9729;52.296;13.260;2024-02-26T10:54:40;20.37;;;13.17;;
19193;SDS011;9729;52.296;13.260;2024-02-26T10:57:08;20.67;;;13.63;;
19193;SDS011;9729;52.296;13.260;2024-02-26T10:59:35;19.07;;;12.80;;
19193;SDS011;9729;52.296;13.260;2024-02-26T11:02:02;19.67;;;12.30;;
19193;SDS011;9729;52.296;13.260;2024-02-26T11:04:29;21.27;;;12.53;;
19193;SDS011;9729;52.296;13.260;2024-02-26T11:06:56;20.10;;;11.70;;
19193;SDS011;9729;52.296;13.260;2024-02-26T11:09:23;20.07;;;11.83;;
19193;SDS011;9729;52.296;13.260;2024-02-26T11:11:51;23.30;;;11.57;;
19193;SDS011;9729;52.296;13.260;2024-02-26T11:14:19;20.00;;;11.80;;
19193;SDS011;9729;52.296;13.260;2024-02-26T11:16:46;15.20;;;11.53;;
19193;SDS011;9729;52.296;13.260;2024-02-26T11:19:13;14.37;;;10.83;;
19193;SDS011;9729;52.296;13.260;2024-02-26T11:21:40;13.90;;;9.23;;
19193;SDS011;9729;52.296;13.260;2024-02-26T11:24:08;15.63;;;10.20;;
19193;SDS011;9729;52.296;13.260;2024-02-26T11:26:40;17.27;;;10.90;;
19193;SDS011;9729;52.296;13.260;2024-02-26T11:29:11;13.40;;;9.93;;
19193;SDS011;9729;52.296;13.260;2024-02-26T11:31:38;19.77;;;10.30;;
19193;SDS011;9729;52.296;13.260;2024-02-26T11:34:06;16.73;;;10.00;;
19193;SDS011;9729;52.296;13.260;2024-02-26T11:36:32;14.77;;;9.27;;
19193;SDS011;9729;52.296;13.260;2024-02-26T11:38:59;15.17;;;10.00;;
19193;SDS011;9729;52.296;13.260;2024-02-26T11:41:25;12.60;;;9.23;;
19193;SDS011;9729;52.296;13.260;2024-02-26T11:43:52;14.13;;;9.63;;
19193;SDS011;9729;52.296;13.260;2024-02-26T11:46:28;13.77;;;9.10;;
19193;SDS011;9729;52.296;13.260;2024-02-26T11:48:56;14.80;;;8.77;;
19193;SDS011;9729;52.296;13.260;2024-02-26T11:51:27;18.63;;;8.87;;
19193;SDS011;9729;52.296;13.260;2024-02-26T11:53:54;11.67;;;8.87;;
19193;SDS011;9729;52.296;13.260;2024-02-26T11:56:22;11.40;;;8.30;;
19193;SDS011;9729;52.296;13.260;2024-02-26T11:58:53;13.20;;;9.03;;
19193;SDS011;9729;52.296;13.260;2024-02-26T12:01:36;14.87;;;10.17;;
19193;SDS011;9729;52.296;13.260;2024-02-26T12:04:04;10.00;;;8.93;;
19193;SDS011;9729;52.296;13.260;2024-02-26T12:06:31;16.60;;;10.00;;
19193;SDS011;9729;52.296;13.260;2024-02-26T12:08:57;10.87;;;8.80;;
19193;SDS011;9729;52.296;13.260;2024-02-26T12:11:26;11.10;;;8.90;;
19193;SDS011;9729;52.296;13.260;2024-02-26T12:13:53;11.60;;;8.17;;
19193;SDS011;9729;52.296;13.260;2024-02-26T12:16:34;8.90;;;7.90;;
19193;SDS011;9729;52.296;13.260;2024-02-26T12:19:02;10.87;;;8.23;;
19193;SDS011;9729;52.296;13.260;2024-02-26T12:21:30;13.77;;;9.17;;
19193;SDS011;9729;52.296;13.260;2024-02-26T12:24:06;11.90;;;9.10;;
19193;SDS011;9729;52.296;13.260;2024-02-26T12:26:33;10.67;;;7.63;;
19193;SDS011;9729;52.296;13.260;2024-02-26T12:28:59;9.87;;;7.73;;
19193;SDS011;9729;52.296;13.260;2024-02-26T12:31:26;12.47;;;7.63;;
19193;SDS011;9729;52.296;13.260;2024-02-26T12:33:53;9.70;;;7.70;;
19193;SDS011;9729;52.296;13.260;2024-02-26T12:36:21;11.93;;;7.70;;
19193;SDS011;9729;52.296;13.260;2024-02-26T12:38:48;11.67;;;7.27;;
19193;SDS011;9729;52.296;13.260;2024-02-26T12:41:14;12.83;;;8.40;;
19193;SDS011;9729;52.296;13.260;2024-02-26T12:43:41;9.10;;;7.67;;
19193;SDS011;9729;52.296;13.260;2024-02-26T12:46:07;12.67;;;7.40;;
19193;SDS011;9729;52.296;13.260;2024-02-26T12:48:34;7.83;;;6.63;;
19193;SDS011;9729;52.296;13.260;2024-02-26T12:51:00;8.73;;;6.70;;
19193;SDS011;9729;52.296;13.260;2024-02-26T12:53:28;9.70;;;6.00;;
19193;SDS011;9729;52.296;13.260;2024-02-26T12:55:54;9.53;;;7.33;;
19193;SDS011;9729;52.296;13.260;2024-02-26T12:58:21;7.40;;;6.23;;
19193;SDS011;9729;52.296;13.260;2024-02-26T13:00:49;9.00;;;6.30;;
19193;SDS011;9729;52.296;13.260;2024-02-26T13:03:16;7.90;;;6.47;;
19193;SDS011;9729;52.296;13.260;2024-02-26T13:05:43;9.37;;;6.10;;
19193;SDS011;9729;52.296;13.260;2024-02-26T13:08:10;7.20;;;6.17;;
19193;SDS011;9729;52.296;13.260;2024-02-26T13:10:37;5.67;;;5.07;;
19193;SDS011;9729;52.296;13.260;2024-02-26T13:13:04;8.17;;;5.77;;
19193;SDS011;9729;52.296;13.260;2024-02-26T13:15:31;8.70;;;5.57;;
19193;SDS011;9729;52.296;13.260;2024-02-26T13:17:57;7.57;;;5.57;;
19193;SDS011;9729;52.296;13.260;2024-02-26T13:20:28;5.87;;;5.27;;
19193;SDS011;9729;52.296;13.260;2024-02-26T13:23:01;7.57;;;5.83;;
19193;SDS011;9729;52.296;13.260;2024-02-26T13:25:28;8.00;;;5.30;;
19193;SDS011;9729;52.296;13.260;2024-02-26T13:28:05;6.90;;;5.50;;
19193;SDS011;9729;52.296;13.260;2024-02-26T13:30:33;11.43;;;6.50;;
19193;SDS011;9729;52.296;13.260;2024-02-26T13:33:06;15.03;;;6.30;;
19193;SDS011;9729;52.296;13.260;2024-02-26T13:35:33;13.00;;;5.50;;
19193;SDS011;9729;52.296;13.260;2024-02-26T13:38:00;8.23;;;5.57;;
19193;SDS011;9729;52.296;13.260;2024-02-26T13:40:26;7.33;;;5.37;;
19193;SDS011;9729;52.296;13.260;2024-02-26T13:42:53;9.47;;;6.37;;
19193;SDS011;9729;52.296;13.260;2024-02-26T13:45:21;5.83;;;5.23;;
19193;SDS011;9729;52.296;13.260;2024-02-26T13:47:47;6.17;;;5.67;;
19193;SDS011;9729;52.296;13.260;2024-02-26T13:50:14;12.13;;;6.63;;
19193;SDS011;9729;52.296;13.260;2024-02-26T13:52:40;13.87;;;7.63;;
19193;SDS011;9729;52.296;13.260;2024-02-26T13:55:06;12.77;;;7.70;;
19193;SDS011;9729;52.296;13.260;2024-02-26T13:57:33;11.70;;;7.50;;
19193;SDS011;9729;52.296;13.260;2024-02-26T13:59:59;11.87;;;7.70;;
19193;SDS011;9729;52.296;13.260;2024-02-26T14:02:27;12.07;;;7.67;;
19193;SDS011;9729;52.296;13.260;2024-02-26T14:04:53;10.30;;;7.53;;
19193;SDS011;9729;52.296;13.260;2024-02-26T14:07:20;12.80;;;8.70;;
19193;SDS011;9729;52.296;13.260;2024-02-26T14:09:46;13.10;;;8.70;;
19193;SDS011;9729;52.296;13.260;2024-02-26T14:12:12;12.13;;;9.17;;
19193;SDS011;9729;52.296;13.260;2024-02-26T14:14:39;12.40;;;9.13;;
19193;SDS011;9729;52.296;13.260;2024-02-26T14:17:07;14.23;;;9.83;;
19193;SDS011;9729;52.296;13.260;2024-02-26T14:19:35;12.67;;;10.00;;
19193;SDS011;9729;52.296;13.260;2024-02-26T14:22:02;15.57;;;10.63;;
19193;SDS011;9729;52.296;13.260;2024-02-26T14:24:29;16.40;;;10.77;;